Share

Coxs Mills, WV (26342)

12:02 PM EDT on April 23, 2014 (GMT -0400)
Brooklyn Point (KWVGLENV3) Elev 732 ft | 38.94 °N, 80.84 °W | Change Station
Active Advisory: Freeze Watch

Current weather conditions updated 56 seconds ago

Mostly Cloudy
Mostly Cloudy
55.6 °F
Feels Like 55.6 °F
N
6.8
Wind Variable Wind from WNW
Sunrise 6:35 AM
Sunset 8:08 PM
Moon Waning Crescent

Today is forecast to be Much Cooler than yesterday.

Pressure 30.00 in
Visibility 10.0 miles
Clouds Mostly Cloudy 3400 ft
Dew Point 38 °F
Humidity 51%
Rainfall 0.00 in
Snow Depth Not available.
UV 5 out of 16
Pollen 9.90 out of 12
Air Quality Not available.
Flu Activity Sporadic
METAR KW22 231555Z AUTO 33006KT 10SM BKN034 08/00 A3000 RMK AO2

More Conditions Fewer Conditions

Pressure 30.00 in
Visibility 10.0 miles
Clouds Mostly Cloudy 3400 ft
Dew Point 38 °F
Humidity 51%
Rainfall 0.00 in
Snow Depth Not available.
UV 5 out of 16
Pollen 9.90 out of 12
Air Quality Not available.
Flu Activity Sporadic
METAR KW22 231555Z AUTO 33006KT 10SM BKN034 08/00 A3000 RMK AO2

More Conditions Fewer Conditions

10-Day Weather Forecast

Almanac

Astronomy

Apr. 23, 2014 Rise Set
Actual Time 6:35 AM EDT 8:08 PM EDT
Civil Twilight 6:07 AM EDT 8:36 PM EDT
Nautical Twilight 5:33 AM EDT 9:10 PM EDT
Astronomical Twilight 4:57 AM EDT 9:46 PM EDT
Moon 3:03 AM EDT 2:18 PM EDT
Length of Visible Light 14h 29m
Length of Day
13h 32m
Tomorrow will be 2m 19s longer.
Waning Crescent, 35% of the Moon is Illuminated
Today
Waning Crescent
Apr 29
New
May 6
First Quarter
May 14
Full
May 21
Last Quarter

Today's Extremes

State Highs State Lows

Community

  • spring flowers
    spring flowers
  • Earth Day Spectrum Ove' Blue
    Earth Day Spectrum Ove' Blue
  • BARN B&W
    BARN B&W
  • April Sunset
    April Sunset
  • Waiting..
    Waiting..

WunderPhotos

Upload Photos

1,704,319 photos uploaded!

Nearby

Snow Depth

Station Depth Elevation
No new snow has been reported.

Coastal Water Temperatures

Place Temperature
No Stations Reporting

Earthquake Activity

City Distance Mag. Time & Date
No recent earthquake activity has been reported nearby.
Minimum magnitude displayed is 2.5.

Nearby Weather Stations

Station Location Temp. Windchill Dew Point Humidity Wind Precip. Elev Updated Type
Brooklyn Point, Glenville, WV 55.6 °F - 38 °F 51% WNW  at  6.8 mph - / hr 732 ft 11:01 AM CDT Normal
Quirky Towers, Vadis, Alum Bridge, WV 51.3 °F - 32 °F 48% SW  at  3.8 mph 0.00 in / hr 837 ft 12:02 PM EDT Normal
W8PY @ Harmony, West Union, WV 48.4 °F 48 °F 35 °F 61% East  at  0.0 mph 0.00 in / hr 852 ft 11:53 AM EDT Normal
Frame Circle, Gassaway, WV 50.6 °F - 34 °F 52% ENE  at  2.9 mph 0.00 in / hr 890 ft 12:02 PM EDT Rapid Fire

Show More Stations Show Fewer Stations

What do you think?

We're not finished. Please let us know what you like, what you don't like, and what you are still missing.